• Join FlightAware (Why Join?)
  • Login
  • US Flag GB Flag 
23:18 EDT


 

Airport Tracker/Info


-or-


 

Live Flight TrackerFlight Track Log ✈ LXJ342 ✈ 14-May-2013 ✈ KVNY - KLAS

Flight Track Log - Related Links

Times and Time Zones

All times are in EDT time to prevent confusion due to time zone crossing. See the LXJ342 flight status page for this flight to view local times or setup timezone preferences in your user account.

Time Position Orientation Groundspeed Altitude Reporting Facility
EDT Latitude Longitude Course Direction KTS MPH feet Rate Location/Type
19:37 34.1606 -118.4683 125° Southeast 232 267 27,000  Level Los Angeles Center
19:37 34.1500 -118.4500 125° Southeast 232 267 3,800 -8,160 Descending Southern California TRACON
19:39 34.2536 -118.4497 360° North 269 310 10,300 3,240 Climbing Los Angeles Center
19:40 34.3339 -118.4072 24° Northeast 318 366 13,000 2,580 Climbing Los Angeles Center
19:41 34.4256 -118.3553 25° Northeast 366 421 15,700 2,280 Climbing Los Angeles Center
19:42 34.4908 -118.2875 41° Northeast 393 452 17,800 2,220 Climbing Los Angeles Center
19:43 34.5778 -118.1519 52° Northeast 427 491 20,400 2,340 Climbing Los Angeles Center
19:44 34.6350 -118.0239 61° Northeast 437 503 22,700 1,200 Climbing Los Angeles Center
19:45 34.6522 -117.8703 82° East 465 535 23,000 120 Climbing Los Angeles Center
19:46 34.6833 -117.6919 78° East 461 531 23,000  Level Los Angeles Center
19:47 34.7189 -117.5436 74° East 462 532 23,000  Level Los Angeles Center
19:48 34.7564 -117.3967 73° East 462 532 23,000  Level Los Angeles Center
19:49 34.7925 -117.2500 73° East 460 529 23,000  Level Los Angeles Center
19:50 34.8314 -117.1039 72° East 460 529 23,000  Level Los Angeles Center
19:51 34.8747 -116.9281 73° East 458 527 23,000  Level Los Angeles Center
19:52 34.9106 -116.7839 73° East 450 518 23,000  Level Los Angeles Center
19:53 34.9422 -116.6531 74° East 409 471 23,000  Level Los Angeles Center
19:54 34.9911 -116.5408 62° Northeast 397 457 23,000  Level Los Angeles Center
19:55 35.0678 -116.4433 46° Northeast 398 458 23,000 -120 Level Los Angeles Center
19:56 35.1631 -116.3239 46° Northeast 408 470 22,800 -840 Descending Los Angeles Center
19:57 35.2419 -116.2256 45° Northeast 407 468 21,300 -1,440 Descending Los Angeles Center
19:58 35.3175 -116.1294 46° Northeast 396 456 19,900 -1,440 Descending Los Angeles Center
19:59 35.3931 -116.0347 46° Northeast 391 450 18,400 -1,440 Descending Los Angeles Center
20:01 35.4667 -115.9394 46° Northeast 386 444 17,000 -1,500 Descending Los Angeles Center
20:02 35.5514 -115.8336 45° Northeast 384 442 15,400 -1,440 Descending Los Angeles Center
20:03 35.6214 -115.7467 45° Northeast 367 422 14,100 -1,200 Descending Los Angeles Center
20:04 35.6875 -115.6625 46° Northeast 349 402 13,000 -540 Descending Los Angeles Center
20:05 35.7658 -115.5772 41° Northeast 337 388 13,000  Level Los Angeles Center
20:06 35.8581 -115.5681 North 335 386 13,000  Level Los Angeles Center
20:07 35.9553 -115.5547 North 334 384 13,000 -540 Level Los Angeles Center
20:08 36.0056 -115.4517 59° Northeast 320 368 11,900 -1,020 Descending Los Angeles Center
20:09 36.0306 -115.3658 70° East 310 357 10,900 -1,080 Descending Los Angeles Center
20:10 36.0222 -115.2703 96° East 289 333 9,800 -1,140 Descending Los Angeles Center
20:11 36.0136 -115.1594 95° East 279 321 8,600 -900 Descending Los Angeles Center
20:12 36.0094 -115.0706 93° East 247 284 8,000 -720 Descending Los Angeles Center
20:13 36.0392 -115.0181 55° Northeast 224 258 7,200 -900 Descending Los Angeles Center
20:14 36.0994 -114.9875 22° Northeast 224 258 6,200 -840 Descending Los Angeles Center
20:14 36.1075 -114.9819 29° Northeast 225 259 6,000 -1,200 Descending Los Angeles Center
20:15 36.1442 -115.0047 333° Northwest 186 214 5,000 -1,380 Descending Los Angeles Center
20:15 36.1492 -115.0239 288° West 199 229 4,600 -1,020 Descending Los Angeles Center
20:16 36.1531 -115.0656 277° West 178 205 4,000 -780 Descending Los Angeles Center
20:17 36.1556 -115.0847 279° West 185 213 3,700 -900 Descending Los Angeles Center
20:17 36.1503 -115.1225 260° West 146 168 3,100 -900 Descending Los Angeles Center
20:18 36.1361 -115.1331 211° Southwest 156 180 2,800 -540 Descending Los Angeles Center
20:18 36.1189 -115.1461 211° Southwest 135 155 2,600 -540 Descending Los Angeles Center
20:19 36.1028 -115.1533 200° South 139 160 2,300 -480 Descending Los Angeles Center
20:21 36.0801 -115.1523 270° West  Level Estimated